Time;durP1;ratioP1;P1;durP2;ratioP2;P2;SDS_P1;SDS_P2;PMS_P1;PMS_P2;Temp;Humidity;BMP_temperature;BMP_pressure;BME280_temperature;BME280_humidity;BME280_pressure;Samples;Min_cycle;Max_cycle;Signal;HPM_P1;HPM_P2
2021/08/05 00:01:50;;;;;;;0.25;0.25;;;18.40;99.90;;;;;;5088334;28;20160;-73
2021/08/05 00:04:16;;;;;;;0.82;0.82;;;18.50;99.90;;;;;;5070645;28;20191;-73
2021/08/05 00:06:41;;;;;;;0.77;0.77;;;18.40;99.90;;;;;;5088439;28;20156;-73
2021/08/05 00:09:07;;;;;;;1.15;0.50;;;18.30;99.90;;;;;;5070200;28;20231;-73
2021/08/05 00:11:33;;;;;;;2.80;0.85;;;18.20;99.90;;;;;;5072583;28;20203;-73
2021/08/05 00:13:59;;;;;;;0.32;0.32;;;18.00;99.90;;;;;;5088386;28;20152;-73
2021/08/05 00:16:25;;;;;;;0.77;0.57;;;17.90;99.90;;;;;;5070287;28;20195;-73
2021/08/05 00:18:51;;;;;;;0.55;0.55;;;17.90;99.90;;;;;;5088163;28;20167;-72
2021/08/05 00:21:18;;;;;;;0.63;0.63;;;17.90;99.90;;;;;;5069602;28;20198;-73
2021/08/05 00:23:44;;;;;;;0.30;0.30;;;17.70;99.90;;;;;;5087833;28;20291;-73
2021/08/05 00:26:11;;;;;;;1.30;1.20;;;17.70;99.90;;;;;;5088112;28;20171;-73
2021/08/05 00:28:38;;;;;;;0.20;0.20;;;17.60;99.90;;;;;;5070064;28;20171;-73
2021/08/05 00:31:07;;;;;;;0.43;0.43;;;17.50;99.90;;;;;;5087795;28;20215;-73
2021/08/05 00:33:34;;;;;;;1.45;0.68;;;17.50;99.90;;;;;;5069998;28;20164;-72
2021/08/05 00:36:00;;;;;;;0.52;0.52;;;17.50;99.90;;;;;;5088112;28;20152;-73
2021/08/05 00:38:27;;;;;;;0.38;0.38;;;17.40;99.90;;;;;;5088080;28;20205;-72
2021/08/05 00:40:52;;;;;;;0.47;0.47;;;17.40;99.90;;;;;;5088007;28;20199;-73
2021/08/05 00:43:22;;;;;;;0.60;0.60;;;17.30;99.90;;;;;;5069925;28;20168;-72
2021/08/05 00:45:48;;;;;;;0.35;0.35;;;17.30;99.90;;;;;;5069757;28;20243;-73
2021/08/05 00:48:14;;;;;;;0.43;0.43;;;17.20;99.90;;;;;;5088080;28;20172;-73
2021/08/05 00:50:41;;;;;;;0.80;0.80;;;17.20;99.90;;;;;;5069717;28;20226;-73
2021/08/05 00:53:08;;;;;;;5.38;0.88;;;17.10;99.90;;;;;;5069739;28;20164;-73
2021/08/05 00:55:35;;;;;;;0.90;0.68;;;17.10;99.90;;;;;;5069803;28;20612;-73
2021/08/05 00:58:01;;;;;;;1.00;0.80;;;17.10;99.90;;;;;;5088070;28;20226;-74
2021/08/05 01:00:27;;;;;;;0.32;0.28;;;17.10;99.90;;;;;;5069600;28;20191;-74
2021/08/05 01:03:02;;;;;;;0.57;0.57;;;17.00;99.90;;;;;;5087845;28;20616;-74
2021/08/05 01:05:32;;;;;;;1.98;1.02;;;17.00;99.90;;;;;;5078128;28;20205;-74
2021/08/05 01:08:08;;;;;;;0.82;0.82;;;17.00;99.90;;;;;;5087852;28;20179;-74
2021/08/05 01:10:52;;;;;;;0.90;0.90;;;16.90;99.90;;;;;;5087716;28;20202;-74
2021/08/05 01:13:39;;;;;;;2.75;0.98;;;16.90;99.90;;;;;;5087944;28;20176;-74
2021/08/05 01:16:14;;;;;;;0.63;0.63;;;16.80;99.90;;;;;;5087515;28;20156;-74
2021/08/05 01:18:40;;;;;;;0.40;0.40;;;16.80;99.90;;;;;;5086274;28;20164;-74
2021/08/05 01:21:39;;;;;;;2.10;1.52;;;16.90;99.90;;;;;;5087554;28;20192;-74
2021/08/05 01:24:07;;;;;;;1.52;1.42;;;16.80;99.90;;;;;;5087487;28;20295;-74
2021/08/05 01:26:48;;;;;;;1.42;1.23;;;16.80;99.90;;;;;;5087698;28;20287;-74
2021/08/05 01:29:18;;;;;;;1.65;1.27;;;16.80;99.90;;;;;;5087649;28;20159;-74
2021/08/05 01:31:46;;;;;;;1.38;1.27;;;16.80;99.90;;;;;;5083377;28;20232;-75
2021/08/05 01:34:16;;;;;;;1.40;1.17;;;16.80;99.90;;;;;;5069841;28;20180;-74
2021/08/05 01:36:45;;;;;;;1.48;1.35;;;16.80;99.90;;;;;;5053107;28;20164;-75
2021/08/05 01:39:12;;;;;;;0.47;0.47;;;17.00;99.90;;;;;;5087188;28;20167;-74
2021/08/05 01:41:40;;;;;;;0.70;0.63;;;17.00;99.90;;;;;;5073007;28;20188;-75
2021/08/05 01:44:11;;;;;;;0.10;0.10;;;17.00;99.90;;;;;;5072955;28;20168;-74
2021/08/05 01:46:39;;;;;;;1.38;1.27;;;17.00;99.90;;;;;;5072901;28;20168;-74
2021/08/05 01:49:05;;;;;;;0.30;0.30;;;16.90;99.90;;;;;;5090811;28;20160;-74
2021/08/05 01:51:32;;;;;;;0.30;0.30;;;16.90;99.90;;;;;;5090744;28;20244;-75
2021/08/05 01:53:58;;;;;;;1.83;1.73;;;16.90;99.90;;;;;;5090801;28;20156;-75
2021/08/05 01:56:25;;;;;;;0.57;0.55;;;16.80;99.90;;;;;;5090698;28;20160;-75
2021/08/05 01:58:53;;;;;;;0.73;0.73;;;16.80;99.90;;;;;;5090592;28;20243;-75
2021/08/05 02:01:19;;;;;;;0.43;0.43;;;16.80;99.90;;;;;;5072416;28;20192;-76
2021/08/05 02:04:12;;;;;;;1.15;1.05;;;16.90;99.90;;;;;;5090604;28;20161;-75
2021/08/05 02:06:54;;;;;;;0.57;0.57;;;16.90;99.90;;;;;;5037376;28;20180;-75
2021/08/05 02:09:29;;;;;;;0.13;0.13;;;16.90;99.90;;;;;;5072340;28;20196;-75
2021/08/05 02:11:56;;;;;;;1.13;0.52;;;16.90;99.90;;;;;;5072259;28;20196;-75
2021/08/05 02:14:24;;;;;;;0.70;0.70;;;16.80;99.90;;;;;;5090410;28;20156;-75
2021/08/05 02:16:52;;;;;;;1.23;1.13;;;16.90;99.90;;;;;;5072244;28;20176;-75
2021/08/05 02:19:19;;;;;;;1.42;1.33;;;16.90;99.90;;;;;;5072098;28;20172;-75
2021/08/05 02:21:46;;;;;;;0.70;0.60;;;16.80;99.90;;;;;;5090223;28;20156;-75
2021/08/05 02:24:15;;;;;;;0.50;0.50;;;16.70;99.90;;;;;;5068608;28;20224;-74
2021/08/05 02:26:41;;;;;;;0.98;0.98;;;16.60;99.90;;;;;;5068731;28;20181;-74
2021/08/05 02:29:09;;;;;;;1.67;1.58;;;16.60;99.90;;;;;;5070034;28;20596;-74
2021/08/05 02:31:39;;;;;;;1.23;0.85;;;16.60;99.90;;;;;;5065270;28;20201;-76
2021/08/05 02:34:07;;;;;;;0.75;0.75;;;16.50;99.90;;;;;;5065176;28;20169;-75
2021/08/05 02:36:33;;;;;;;0.70;0.70;;;16.60;99.90;;;;;;5049877;28;20181;-75
2021/08/05 02:38:59;;;;;;;0.28;0.28;;;16.60;99.90;;;;;;5079679;28;20172;-75
2021/08/05 02:41:27;;;;;;;0.65;0.65;;;16.60;99.90;;;;;;5069037;28;20169;-74
2021/08/05 02:43:55;;;;;;;0.70;0.65;;;16.60;99.90;;;;;;5069683;28;20157;-75
2021/08/05 02:46:23;;;;;;;0.95;0.90;;;16.70;99.90;;;;;;5067732;28;20194;-74
2021/08/05 02:48:50;;;;;;;0.85;0.38;;;16.70;99.90;;;;;;5068342;28;20175;-77
2021/08/05 02:51:16;;;;;;;0.98;0.85;;;16.70;99.90;;;;;;5069445;28;20196;-75
2021/08/05 02:53:43;;;;;;;0.50;0.50;;;16.70;99.90;;;;;;5069683;28;20248;-75
2021/08/05 02:56:10;;;;;;;1.63;1.52;;;16.70;99.90;;;;;;5068214;28;20196;-75
2021/08/05 02:58:37;;;;;;;1.23;1.13;;;16.70;99.90;;;;;;5069402;28;20157;-76
2021/08/05 03:01:04;;;;;;;7.13;1.92;;;16.80;99.90;;;;;;5067318;28;20261;-76
2021/08/05 03:03:31;;;;;;;1.60;1.50;;;16.70;99.90;;;;;;5069375;28;20163;-76
2021/08/05 03:05:58;;;;;;;0.63;0.45;;;16.60;99.90;;;;;;5069398;28;20180;-76
2021/08/05 03:08:25;;;;;;;1.38;1.30;;;16.60;99.90;;;;;;5068200;28;20188;-77
2021/08/05 03:10:50;;;;;;;0.85;0.85;;;16.60;99.90;;;;;;5068873;28;20211;-76
2021/08/05 03:13:16;;;;;;;0.90;0.90;;;16.60;99.90;;;;;;5069354;28;20156;-77
2021/08/05 03:15:42;;;;;;;0.85;0.85;;;16.60;99.90;;;;;;5069244;28;20202;-75
2021/08/05 03:18:08;;;;;;;1.38;1.27;;;16.60;99.90;;;;;;5069280;28;20207;-75
2021/08/05 03:20:35;;;;;;;1.50;1.40;;;16.60;99.90;;;;;;5067933;28;20193;-76
2021/08/05 03:23:01;;;;;;;1.50;1.40;;;16.60;99.90;;;;;;5069099;28;20173;-76
2021/08/05 03:25:28;;;;;;;0.77;0.77;;;16.60;99.90;;;;;;5067757;28;20252;-76
2021/08/05 03:27:55;;;;;;;0.90;0.90;;;16.60;99.90;;;;;;5069082;28;20191;-75
2021/08/05 03:30:21;;;;;;;0.52;0.52;;;16.50;99.90;;;;;;5068913;28;20189;-76
2021/08/05 03:32:47;;;;;;;0.38;0.38;;;16.60;99.90;;;;;;5056276;28;20195;-76
2021/08/05 03:35:13;;;;;;;1.35;0.73;;;16.70;99.90;;;;;;5064349;28;20177;-76
2021/08/05 03:37:38;;;;;;;0.93;0.93;;;16.70;99.90;;;;;;5048904;28;20673;-76
2021/08/05 03:40:05;;;;;;;2.53;1.52;;;16.70;99.90;;;;;;5063270;28;20248;-76
2021/08/05 03:42:31;;;;;;;3.28;2.60;;;16.80;99.90;;;;;;5064195;28;20191;-76
2021/08/05 03:44:57;;;;;;;1.10;1.10;;;16.70;99.90;;;;;;5064177;28;20177;-76
2021/08/05 03:47:23;;;;;;;0.38;0.38;;;16.60;99.90;;;;;;5048498;28;20704;-76
2021/08/05 03:49:49;;;;;;;0.52;0.45;;;16.50;99.90;;;;;;5063808;28;20176;-75
2021/08/05 03:52:15;;;;;;;1.58;1.48;;;16.60;99.90;;;;;;5063630;28;20292;-74
2021/08/05 03:54:41;;;;;;;0.75;0.75;;;16.70;99.90;;;;;;5048670;28;20180;-75
2021/08/05 03:57:07;;;;;;;1.50;1.02;;;16.60;99.90;;;;;;5047701;28;20204;-75
2021/08/05 03:59:34;;;;;;;0.90;0.30;;;16.60;99.90;;;;;;5064085;28;20165;-77
2021/08/05 04:02:00;;;;;;;1.27;0.93;;;16.70;99.90;;;;;;5048623;28;20169;-75
2021/08/05 04:04:26;;;;;;;1.20;1.20;;;16.70;99.90;;;;;;5048607;28;20166;-77
2021/08/05 04:06:54;;;;;;;1.10;1.05;;;16.80;99.90;;;;;;5048671;28;20203;-76
2021/08/05 04:09:21;;;;;;;1.65;1.55;;;16.80;99.90;;;;;;5048656;28;20158;-76
2021/08/05 04:11:48;;;;;;;2.28;1.58;;;16.90;99.90;;;;;;5048815;28;20189;-74
2021/08/05 04:14:13;;;;;;;1.58;1.48;;;16.80;99.90;;;;;;5063673;28;20170;-76
2021/08/05 04:16:39;;;;;;;1.17;1.17;;;16.80;99.90;;;;;;5063669;28;20171;-76
2021/08/05 04:19:05;;;;;;;0.68;0.68;;;16.90;99.90;;;;;;5063658;28;20617;-76
2021/08/05 04:21:31;;;;;;;2.70;2.50;;;16.90;99.90;;;;;;5048396;28;20702;-75
2021/08/05 04:23:57;;;;;;;1.30;1.30;;;16.80;99.90;;;;;;5063595;28;20221;-75
2021/08/05 04:26:23;;;;;;;2.75;2.53;;;16.80;99.90;;;;;;5063776;28;20545;-75
2021/08/05 04:28:49;;;;;;;0.82;0.82;;;16.70;99.90;;;;;;5048406;28;20189;-75
2021/08/05 04:31:14;;;;;;;2.80;1.63;;;16.70;99.90;;;;;;5048266;28;20185;-75
2021/08/05 04:33:40;;;;;;;0.95;0.95;;;16.80;99.90;;;;;;5063523;28;20193;-75
2021/08/05 04:36:06;;;;;;;2.35;1.70;;;16.80;99.90;;;;;;5048246;28;20170;-75
2021/08/05 04:38:32;;;;;;;2.25;2.10;;;16.70;99.90;;;;;;5063485;28;20204;-75
2021/08/05 04:40:58;;;;;;;2.45;1.98;;;16.70;99.90;;;;;;5048277;28;20252;-75
2021/08/05 04:43:24;;;;;;;0.47;0.35;;;16.60;99.90;;;;;;5063468;28;20187;-76
2021/08/05 04:45:50;;;;;;;1.42;1.33;;;16.70;99.90;;;;;;5063360;28;20233;-76
2021/08/05 04:48:16;;;;;;;0.90;0.85;;;16.60;99.90;;;;;;5048124;28;20193;-76
2021/08/05 04:50:43;;;;;;;0.85;0.85;;;16.60;99.90;;;;;;5048052;28;20173;-76
2021/08/05 04:53:11;;;;;;;0.82;0.82;;;16.60;99.90;;;;;;5047924;28;20154;-76
2021/08/05 04:55:37;;;;;;;0.50;0.50;;;16.50;99.90;;;;;;5063309;28;20191;-76
2021/08/05 04:58:05;;;;;;;1.00;1.00;;;16.50;99.90;;;;;;5063287;28;20236;-77
2021/08/05 05:00:38;;;;;;;0.20;0.20;;;16.40;99.90;;;;;;5063347;28;20634;-79
2021/08/05 05:03:04;;;;;;;0.57;0.57;;;16.40;99.90;;;;;;5063361;28;20185;-76
2021/08/05 05:05:31;;;;;;;1.75;1.65;;;16.50;99.90;;;;;;5048233;28;20157;-76
2021/08/05 05:08:14;;;;;;;1.30;1.13;;;16.60;99.90;;;;;;5063680;28;20247;-76
2021/08/05 05:10:41;;;;;;;1.23;0.85;;;16.70;99.90;;;;;;5067609;28;20165;-74
2021/08/05 05:13:06;;;;;;;3.47;2.20;;;16.60;99.90;;;;;;5067499;28;20168;-76
2021/08/05 05:15:32;;;;;;;1.05;1.05;;;16.60;99.90;;;;;;5066835;28;20165;-77
2021/08/05 05:17:58;;;;;;;0.47;0.47;;;16.50;99.90;;;;;;5066890;28;20216;-76
2021/08/05 05:20:24;;;;;;;0.20;0.20;;;16.70;99.90;;;;;;5051680;28;20504;-77
2021/08/05 05:22:51;;;;;;;1.45;1.35;;;16.70;99.90;;;;;;5051851;28;20229;-75
2021/08/05 05:25:17;;;;;;;1.10;1.00;;;16.80;99.90;;;;;;5066730;28;20580;-77
2021/08/05 05:27:43;;;;;;;6.30;2.10;;;16.90;99.90;;;;;;5051420;28;20277;-77
2021/08/05 05:30:11;;;;;;;0.98;0.98;;;17.00;99.90;;;;;;5051449;28;20237;-74
2021/08/05 05:32:37;;;;;;;1.90;1.25;;;17.00;99.90;;;;;;5051446;28;20196;-74
2021/08/05 05:35:06;;;;;;;2.63;2.45;;;17.10;99.90;;;;;;5051444;28;20165;-77
2021/08/05 05:37:32;;;;;;;0.90;0.90;;;17.10;99.90;;;;;;5066655;28;20261;-74
2021/08/05 05:39:58;;;;;;;1.67;1.58;;;17.10;99.90;;;;;;5066810;28;20267;-76
2021/08/05 05:42:24;;;;;;;1.52;0.77;;;17.20;99.90;;;;;;5051355;28;20161;-75
2021/08/05 05:44:51;;;;;;;1.95;1.85;;;17.30;99.90;;;;;;5051277;28;20172;-76
2021/08/05 05:47:17;;;;;;;1.27;1.25;;;17.30;99.90;;;;;;5066168;28;20220;-76
2021/08/05 05:49:44;;;;;;;0.35;0.35;;;17.20;99.90;;;;;;5066390;28;20244;-76
2021/08/05 05:52:10;;;;;;;0.55;0.55;;;17.20;99.90;;;;;;5065939;28;20217;-76
2021/08/05 05:54:36;;;;;;;1.65;1.30;;;17.20;99.90;;;;;;5050879;28;20160;-76
2021/08/05 05:57:02;;;;;;;1.75;1.25;;;17.20;99.90;;;;;;5066100;28;20283;-76
2021/08/05 05:59:28;;;;;;;1.38;0.90;;;17.30;99.90;;;;;;5050765;28;20169;-76
2021/08/05 06:01:54;;;;;;;0.93;0.90;;;17.20;99.90;;;;;;5050753;28;20217;-76
2021/08/05 06:04:20;;;;;;;0.85;0.85;;;17.20;99.90;;;;;;5066110;28;20189;-76
2021/08/05 06:06:46;;;;;;;1.17;1.17;;;17.30;99.90;;;;;;5050678;28;20208;-77
2021/08/05 06:09:12;;;;;;;0.93;0.93;;;17.40;99.90;;;;;;5050894;28;20158;-76
2021/08/05 06:11:37;;;;;;;1.95;1.02;;;17.30;99.90;;;;;;5050567;28;20208;-77
2021/08/05 06:14:03;;;;;;;13.65;1.33;;;17.60;99.90;;;;;;5050289;28;20157;-77
2021/08/05 06:16:29;;;;;;;0.63;0.50;;;17.60;99.90;;;;;;5065921;28;20173;-77
2021/08/05 06:18:55;;;;;;;0.75;0.75;;;17.70;99.90;;;;;;5050236;28;20157;-77
2021/08/05 06:21:21;;;;;;;1.00;1.00;;;17.90;99.90;;;;;;5064732;28;20166;-76
2021/08/05 06:23:47;;;;;;;1.40;1.30;;;18.00;99.90;;;;;;5056237;28;20243;-77
2021/08/05 06:26:13;;;;;;;0.50;0.50;;;17.60;99.90;;;;;;5070152;28;20606;-76
2021/08/05 06:28:39;;;;;;;0.50;0.50;;;17.70;99.90;;;;;;5068573;28;20192;-76
2021/08/05 06:31:05;;;;;;;0.70;0.70;;;18.00;99.90;;;;;;5070354;28;20201;-77
2021/08/05 06:33:32;;;;;;;0.90;0.90;;;18.00;99.90;;;;;;5068868;28;20594;-76
2021/08/05 06:35:58;;;;;;;0.88;0.88;;;18.20;99.90;;;;;;5068778;28;20238;-76
2021/08/05 06:38:24;;;;;;;1.23;1.17;;;18.10;99.90;;;;;;5069981;28;20188;-76
2021/08/05 06:40:50;;;;;;;2.05;1.95;;;18.00;99.90;;;;;;5069381;28;20157;-77
2021/08/05 06:43:16;;;;;;;0.73;0.73;;;18.20;99.90;;;;;;5068306;28;20207;-77
2021/08/05 06:45:42;;;;;;;1.10;0.77;;;18.10;99.90;;;;;;5069822;28;20180;-77
2021/08/05 06:48:08;;;;;;;1.02;1.02;;;18.10;99.90;;;;;;5069596;28;20197;-77
2021/08/05 06:50:34;;;;;;;1.30;1.25;;;18.00;99.90;;;;;;5070138;28;20187;-76
2021/08/05 06:53:00;;;;;;;1.92;1.00;;;17.80;99.90;;;;;;5061843;28;20251;-79
2021/08/05 06:55:26;;;;;;;0.50;0.50;;;17.80;99.90;;;;;;5067710;28;20172;-77
2021/08/05 06:57:52;;;;;;;0.80;0.80;;;17.90;99.90;;;;;;5089875;28;20206;-78
2021/08/05 07:00:18;;;;;;;1.75;0.82;;;17.90;99.90;;;;;;5089454;28;20160;-78
2021/08/05 07:02:44;;;;;;;1.15;1.15;;;17.90;99.90;;;;;;5088152;28;20231;-78
2021/08/05 07:05:11;;;;;;;1.17;1.13;;;18.00;99.90;;;;;;5088307;28;20196;-78
2021/08/05 07:07:38;;;;;;;0.47;0.47;;;17.90;99.90;;;;;;5071669;28;20168;-78
2021/08/05 07:10:05;;;;;;;1.25;1.17;;;17.90;99.90;;;;;;5071770;28;20613;-78
2021/08/05 07:12:32;;;;;;;0.90;0.90;;;18.00;99.90;;;;;;5088103;28;20196;-78
2021/08/05 07:14:58;;;;;;;0.63;0.63;;;18.10;99.90;;;;;;5089525;28;20192;-78
2021/08/05 07:17:24;;;;;;;1.15;1.15;;;18.40;99.90;;;;;;5089563;28;20157;-78
2021/08/05 07:19:50;;;;;;;0.80;0.80;;;18.40;99.90;;;;;;5089656;28;20273;-77
2021/08/05 07:22:17;;;;;;;0.77;0.77;;;18.40;99.90;;;;;;5089396;28;20160;-78
2021/08/05 07:24:43;;;;;;;1.13;1.13;;;18.40;99.90;;;;;;5088536;28;20256;-77
2021/08/05 07:27:09;;;;;;;1.80;1.70;;;18.70;99.90;;;;;;5089302;28;20197;-78
2021/08/05 07:29:35;;;;;;;0.73;0.73;;;19.00;99.90;;;;;;5070959;28;20172;-78
2021/08/05 07:32:04;;;;;;;0.73;0.73;;;19.10;99.90;;;;;;5070933;28;20203;-78
2021/08/05 07:34:35;;;;;;;0.50;0.50;;;19.00;99.90;;;;;;5089089;28;20195;-79
2021/08/05 07:37:02;;;;;;;0.40;0.40;;;18.80;99.90;;;;;;5087489;28;20188;-78
2021/08/05 07:39:29;;;;;;;0.82;0.82;;;18.70;99.90;;;;;;5088645;28;20184;-76
2021/08/05 07:41:55;;;;;;;0.57;0.57;;;18.60;99.90;;;;;;5088804;28;20270;-78
2021/08/05 07:44:21;;;;;;;0.68;0.63;;;18.30;99.90;;;;;;5088686;28;20194;-76
2021/08/05 07:46:48;;;;;;;0.20;0.20;;;18.40;99.90;;;;;;5070655;28;20172;-77
2021/08/05 07:49:15;;;;;;;0.20;0.20;;;18.30;99.90;;;;;;5088575;28;20192;-76
2021/08/05 07:51:41;;;;;;;0.32;0.32;;;18.30;99.90;;;;;;5087067;28;20195;-76
2021/08/05 07:54:07;;;;;;;0.75;0.75;;;18.30;99.90;;;;;;5070752;28;20159;-76
2021/08/05 07:56:33;;;;;;;0.32;0.32;;;18.10;99.90;;;;;;5088310;28;20235;-78
2021/08/05 07:58:59;;;;;;;0.28;0.28;;;18.10;99.90;;;;;;5088374;28;20660;-76
2021/08/05 08:01:24;;;;;;;0.20;0.20;;;18.20;99.90;;;;;;5088603;28;20535;-74
2021/08/05 08:03:50;;;;;;;0.20;0.20;;;18.20;99.90;;;;;;5088328;28;20252;-77
2021/08/05 08:06:16;;;;;;;0.20;0.20;;;18.30;99.90;;;;;;5088629;28;20277;-79
2021/08/05 08:08:42;;;;;;;0.10;0.10;;;18.30;99.90;;;;;;5088233;28;20219;-79
2021/08/05 08:11:08;;;;;;;0.20;0.20;;;18.30;99.90;;;;;;5070139;28;20684;-78
2021/08/05 08:13:34;;;;;;;0.17;0.17;;;18.30;99.90;;;;;;5074542;28;20278;-79
2021/08/05 08:16:01;;;;;;;0.88;0.45;;;18.30;99.90;;;;;;5087023;28;20182;-79
2021/08/05 08:18:27;;;;;;;0.20;0.20;;;18.30;99.90;;;;;;5089107;28;20184;-78
2021/08/05 08:20:57;;;;;;;0.40;0.40;;;18.20;99.90;;;;;;5088192;28;20148;-78
2021/08/05 08:23:24;;;;;;;0.10;0.10;;;18.10;99.90;;;;;;5066112;28;20203;-78
2021/08/05 08:25:50;;;;;;;0.30;0.30;;;18.00;99.90;;;;;;5078133;28;20190;-78
2021/08/05 08:28:16;;;;;;;0.00;0.00;;;17.90;99.90;;;;;;5087476;28;20498;-78
2021/08/05 08:30:42;;;;;;;0.10;0.10;;;17.90;99.90;;;;;;5088001;28;20156;-77
2021/08/05 08:33:08;;;;;;;0.10;0.10;;;17.80;99.90;;;;;;5086687;28;20196;-78
2021/08/05 08:35:33;;;;;;;0.20;0.20;;;17.70;99.90;;;;;;5087888;28;20156;-77
2021/08/05 08:38:00;;;;;;;0.25;0.25;;;17.60;99.90;;;;;;5068974;28;20759;-78
2021/08/05 08:40:26;;;;;;;0.22;0.22;;;17.70;99.90;;;;;;5059768;28;20190;-77
2021/08/05 08:42:51;;;;;;;0.00;0.00;;;17.50;99.90;;;;;;5082963;28;20187;-76
2021/08/05 08:45:17;;;;;;;0.13;0.13;;;17.60;99.90;;;;;;5076430;28;20181;-76
2021/08/05 08:47:52;;;;;;;0.00;0.00;;;17.50;99.90;;;;;;5087550;28;20666;-77
2021/08/05 08:50:19;;;;;;;0.10;0.10;;;17.40;99.90;;;;;;5090252;28;20164;-77
2021/08/05 08:52:46;;;;;;;0.03;0.03;;;17.40;99.90;;;;;;5087352;28;20211;-77
2021/08/05 08:55:13;;;;;;;7.47;1.65;;;17.40;99.90;;;;;;5079249;28;20163;-76
2021/08/05 08:57:39;;;;;;;0.08;0.08;;;17.40;99.90;;;;;;5071734;28;20200;-76
2021/08/05 09:00:07;;;;;;;0.00;0.00;;;17.40;99.90;;;;;;5074568;28;20188;-76
2021/08/05 09:02:33;;;;;;;0.00;0.00;;;17.30;99.90;;;;;;5093234;28;20229;-78
2021/08/05 09:05:00;;;;;;;0.00;0.00;;;17.30;99.90;;;;;;5075259;28;20193;-76
2021/08/05 09:07:25;;;;;;;0.00;0.00;;;17.30;99.90;;;;;;5091616;28;20208;-75
2021/08/05 09:09:52;;;;;;;0.00;0.00;;;17.10;99.90;;;;;;5092853;28;20186;-77
2021/08/05 09:12:18;;;;;;;0.08;0.08;;;17.20;99.90;;;;;;5093758;28;20230;-77
2021/08/05 09:14:50;;;;;;;0.10;0.10;;;17.30;99.90;;;;;;5075600;28;20161;-77
2021/08/05 09:17:29;;;;;;;0.10;0.10;;;17.20;99.90;;;;;;5074405;28;20199;-77
2021/08/05 09:20:02;;;;;;;0.10;0.10;;;17.00;99.90;;;;;;5074574;28;20174;-78
2021/08/05 09:22:35;;;;;;;0.00;0.00;;;16.90;99.90;;;;;;5092646;28;20195;-78
2021/08/05 09:25:31;;;;;;;0.10;0.10;;;16.80;99.90;;;;;;5074278;28;20220;-78
2021/08/05 09:28:00;;;;;;;0.10;0.10;;;16.80;99.90;;;;;;5090275;28;20162;-77
2021/08/05 09:30:37;;;;;;;0.10;0.10;;;16.70;99.90;;;;;;5090365;28;20160;-78
2021/08/05 09:33:11;;;;;;;0.00;0.00;;;16.90;99.90;;;;;;5072703;28;20721;-78
2021/08/05 09:35:40;;;;;;;0.10;0.10;;;17.00;99.90;;;;;;5090996;28;20152;-78
2021/08/05 09:38:24;;;;;;;0.20;0.20;;;17.10;99.90;;;;;;5069266;28;20177;-78
2021/08/05 09:41:07;;;;;;;0.00;0.00;;;17.10;99.90;;;;;;5069224;28;20227;-78
2021/08/05 09:43:33;;;;;;;0.00;0.00;;;17.20;99.90;;;;;;5069476;28;20171;-78
2021/08/05 09:45:59;;;;;;;0.10;0.10;;;17.30;99.90;;;;;;5078610;28;20168;-78
2021/08/05 09:48:34;;;;;;;0.10;0.10;;;17.40;99.90;;;;;;5090361;28;20182;-78
2021/08/05 09:51:15;;;;;;;0.00;0.00;;;17.30;99.90;;;;;;5072543;28;20713;-78
2021/08/05 09:54:04;;;;;;;0.00;0.00;;;17.30;99.90;;;;;;5090560;28;20160;-78
2021/08/05 09:56:37;;;;;;;0.00;0.00;;;17.30;99.90;;;;;;5090330;28;20182;-78
2021/08/05 09:59:04;;;;;;;0.10;0.10;;;17.20;99.90;;;;;;5089998;28;20168;-78
2021/08/05 10:01:30;;;;;;;0.00;0.00;;;17.30;99.90;;;;;;5065322;28;20196;-76
2021/08/05 10:03:56;;;;;;;0.05;0.05;;;17.30;99.90;;;;;;5079760;28;20185;-78
2021/08/05 10:06:22;;;;;;;0.00;0.00;;;17.30;99.90;;;;;;5073769;28;20173;-79
2021/08/05 10:08:48;;;;;;;0.00;0.00;;;17.40;99.90;;;;;;5071161;28;20161;-78
2021/08/05 10:11:15;;;;;;;0.85;0.63;;;17.50;99.90;;;;;;5088858;28;20737;-78
2021/08/05 10:13:42;;;;;;;0.10;0.10;;;17.60;99.90;;;;;;5090299;28;20189;-78
2021/08/05 10:16:11;;;;;;;0.00;0.00;;;17.60;99.90;;;;;;5072407;28;20175;-78
2021/08/05 10:18:39;;;;;;;0.00;0.00;;;17.60;99.90;;;;;;5089872;28;20164;-78
2021/08/05 10:21:07;;;;;;;0.00;0.00;;;17.70;99.90;;;;;;5090317;28;20195;-78
2021/08/05 10:23:36;;;;;;;0.00;0.00;;;17.60;99.90;;;;;;5073159;28;20220;-78
2021/08/05 10:26:05;;;;;;;0.00;0.00;;;17.50;99.90;;;;;;5072462;28;20179;-79
2021/08/05 10:28:32;;;;;;;0.00;0.00;;;17.60;99.90;;;;;;5085970;28;20262;-79
2021/08/05 10:31:00;;;;;;;0.20;0.20;;;17.60;99.90;;;;;;5074493;28;20207;-79
2021/08/05 10:33:26;;;;;;;0.00;0.00;;;17.60;99.90;;;;;;5072340;28;20187;-78
2021/08/05 10:35:52;;;;;;;0.00;0.00;;;17.60;99.90;;;;;;5072327;28;20249;-79
2021/08/05 10:38:23;;;;;;;1.25;0.38;;;17.60;99.90;;;;;;5071751;28;20262;-79
2021/08/05 10:40:52;;;;;;;0.10;0.10;;;17.60;99.90;;;;;;5072084;28;20168;-78
2021/08/05 10:43:18;;;;;;;0.10;0.10;;;17.50;99.90;;;;;;5090177;28;20163;-78
2021/08/05 10:45:45;;;;;;;0.22;0.22;;;17.60;99.90;;;;;;5090075;28;20168;-78
2021/08/05 10:48:12;;;;;;;0.10;0.10;;;17.50;99.90;;;;;;5071470;28;20251;-78
2021/08/05 10:50:41;;;;;;;0.03;0.03;;;17.50;99.90;;;;;;5071747;28;20192;-79
2021/08/05 10:53:30;;;;;;;0.10;0.10;;;17.40;99.90;;;;;;5089800;28;20172;-79
2021/08/05 10:56:19;;;;;;;0.00;0.00;;;17.50;99.90;;;;;;5071515;28;20192;-78
2021/08/05 10:59:05;;;;;;;0.77;0.15;;;17.50;99.90;;;;;;5061978;28;20179;-79
2021/08/05 11:01:53;;;;;;;0.00;0.00;;;17.50;99.90;;;;;;5089688;28;20694;-78
2021/08/05 11:04:35;;;;;;;0.00;0.00;;;17.50;99.90;;;;;;5071752;28;20168;-79
2021/08/05 11:07:32;;;;;;;0.15;0.15;;;17.50;99.90;;;;;;5070748;28;20183;-79
2021/08/05 11:10:16;;;;;;;0.15;0.10;;;17.50;99.90;;;;;;5089593;28;20703;-80
2021/08/05 11:12:46;;;;;;;0.10;0.10;;;17.70;99.90;;;;;;5065252;28;20211;-76
2021/08/05 11:15:29;;;;;;;0.00;0.00;;;17.70;99.90;;;;;;5051212;28;20165;-77
2021/08/05 11:18:10;;;;;;;0.40;0.40;;;17.60;99.90;;;;;;5068722;28;20613;-77
2021/08/05 11:20:43;;;;;;;0.20;0.20;;;17.70;99.90;;;;;;5069406;28;20152;-76
2021/08/05 11:23:41;;;;;;;0.10;0.10;;;17.80;99.90;;;;;;5077434;28;20213;-77
2021/08/05 11:26:10;;;;;;;0.00;0.00;;;17.70;99.90;;;;;;5014665;28;20212;-77
2021/08/05 11:28:54;;;;;;;0.10;0.10;;;17.70;99.90;;;;;;5029872;28;20208;-76
2021/08/05 11:31:23;;;;;;;0.10;0.10;;;17.70;99.90;;;;;;5046596;28;20782;-77
2021/08/05 11:34:00;;;;;;;0.08;0.08;;;17.70;99.90;;;;;;5046818;28;20325;-77
2021/08/05 11:36:34;;;;;;;0.20;0.20;;;17.90;99.90;;;;;;5019256;28;20213;-76
2021/08/05 11:39:00;;;;;;;0.00;0.00;;;18.00;99.90;;;;;;5026415;28;20236;-76
2021/08/05 11:41:54;;;;;;;0.08;0.08;;;18.00;99.90;;;;;;5027209;28;20221;-76
2021/08/05 11:44:31;;;;;;;0.10;0.10;;;18.10;99.90;;;;;;5027183;28;20692;-77
2021/08/05 11:47:06;;;;;;;0.00;0.00;;;18.10;99.90;;;;;;5042266;28;20200;-76
2021/08/05 11:49:38;;;;;;;0.20;0.20;;;18.10;99.90;;;;;;5029718;28;20184;-78
2021/08/05 11:52:35;;;;;;;0.85;0.68;;;18.10;99.90;;;;;;5029808;28;20213;-79
2021/08/05 11:55:28;;;;;;;0.10;0.10;;;17.90;99.90;;;;;;4997111;28;20185;-77
2021/08/05 11:57:58;;;;;;;0.40;0.40;;;17.70;99.90;;;;;;5014017;28;20294;-77
2021/08/05 12:00:26;;;;;;;0.35;0.10;;;17.80;99.90;;;;;;5001098;28;20197;-78
2021/08/05 12:03:06;;;;;;;1.58;1.45;;;17.90;99.90;;;;;;5059755;28;20257;-78
2021/08/05 12:05:41;;;;;;;4.03;1.23;;;18.00;99.90;;;;;;5083852;28;20601;-78
2021/08/05 12:08:08;;;;;;;0.40;0.40;;;17.80;99.90;;;;;;5081184;28;20647;-78
2021/08/05 12:10:38;;;;;;;0.10;0.10;;;17.80;99.90;;;;;;5080979;28;20167;-78
2021/08/05 12:13:12;;;;;;;0.10;0.10;;;17.70;99.90;;;;;;5065730;28;20203;-78
2021/08/05 12:15:41;;;;;;;0.20;0.20;;;17.70;99.90;;;;;;5069448;28;20172;-78
2021/08/05 12:18:15;;;;;;;0.10;0.10;;;17.70;99.90;;;;;;5069005;28;20569;-77
2021/08/05 12:21:02;;;;;;;0.28;0.28;;;17.70;99.90;;;;;;5087758;28;20612;-77
2021/08/05 12:23:33;;;;;;;0.63;0.63;;;17.80;99.90;;;;;;5086985;28;20211;-78
2021/08/05 12:28:43;;;;;;;0.05;0.05;;;18.30;99.90;;;;;;5088549;28;20288;-77
2021/08/05 12:31:12;;;;;;;0.57;0.38;;;18.40;99.90;;;;;;5088228;28;20281;-78
2021/08/05 12:33:41;;;;;;;0.17;0.17;;;18.50;99.90;;;;;;5087504;28;20210;-78
2021/08/05 12:36:09;;;;;;;0.10;0.10;;;18.50;99.90;;;;;;5087972;28;20191;-78
2021/08/05 12:39:08;;;;;;;0.10;0.08;;;18.50;99.90;;;;;;5088152;28;20164;-78
2021/08/05 12:41:48;;;;;;;0.20;0.20;;;18.60;99.90;;;;;;5066442;28;20180;-78
2021/08/05 12:44:17;;;;;;;0.00;0.00;;;18.80;99.90;;;;;;5068058;28;20187;-78
2021/08/05 12:46:50;;;;;;;0.73;0.73;;;18.70;99.90;;;;;;5081056;28;20172;-78
2021/08/05 12:49:17;;;;;;;0.30;0.30;;;18.70;99.90;;;;;;5069912;28;20226;-79
2021/08/05 12:51:44;;;;;;;0.20;0.10;;;19.10;99.90;;;;;;5069670;28;20276;-78
2021/08/05 12:54:23;;;;;;;0.10;0.10;;;19.20;99.90;;;;;;5087779;28;20213;-79
2021/08/05 12:56:57;;;;;;;0.35;0.35;;;19.30;99.90;;;;;;5063562;28;20210;-77
2021/08/05 12:59:25;;;;;;;0.00;0.00;;;19.50;99.90;;;;;;5084650;28;20198;-77
2021/08/05 13:02:09;;;;;;;0.25;0.25;;;19.60;99.90;;;;;;5083807;28;20183;-77